sensor_id;sensor_type;location;lat;lon;timestamp;pressure;altitude;pressure_sealevel;temperature;humidity
80103;BME280;69865;47.648;19.030;2024-01-25T00:00:31;100729.16;;;9.21;58.43
80103;BME280;69865;47.648;19.030;2024-01-25T00:01:03;100720.47;;;9.32;57.87
80103;BME280;69865;47.648;19.030;2024-01-25T00:01:35;100704.97;;;9.40;56.97
80103;BME280;69865;47.648;19.030;2024-01-25T00:02:08;100712.75;;;9.41;56.96
80103;BME280;69865;47.648;19.030;2024-01-25T00:02:40;100707.97;;;9.35;57.15
80103;BME280;69865;47.648;19.030;2024-01-25T00:03:12;100696.47;;;9.36;57.14
80103;BME280;69865;47.648;19.030;2024-01-25T00:03:44;100718.69;;;9.32;58.31
80103;BME280;69865;47.648;19.030;2024-01-25T00:04:16;100702.53;;;9.26;58.30
80103;BME280;69865;47.648;19.030;2024-01-25T00:04:48;100717.22;;;9.28;58.60
80103;BME280;69865;47.648;19.030;2024-01-25T00:05:21;100698.84;;;9.28;57.60
80103;BME280;69865;47.648;19.030;2024-01-25T00:05:53;100745.72;;;9.34;57.73
80103;BME280;69865;47.648;19.030;2024-01-25T00:06:25;100706.88;;;9.38;56.69
80103;BME280;69865;47.648;19.030;2024-01-25T00:06:57;100723.72;;;9.35;57.05
80103;BME280;69865;47.648;19.030;2024-01-25T00:07:30;100718.91;;;9.29;57.26
80103;BME280;69865;47.648;19.030;2024-01-25T00:08:02;100726.09;;;9.27;58.48
80103;BME280;69865;47.648;19.030;2024-01-25T00:08:34;100703.75;;;9.33;58.25
80103;BME280;69865;47.648;19.030;2024-01-25T00:09:06;100715.22;;;9.32;57.51
80103;BME280;69865;47.648;19.030;2024-01-25T00:09:39;100722.28;;;9.31;58.25
80103;BME280;69865;47.648;19.030;2024-01-25T00:10:11;100706.63;;;9.30;58.24
80103;BME280;69865;47.648;19.030;2024-01-25T00:10:43;100690.38;;;9.36;57.44
80103;BME280;69865;47.648;19.030;2024-01-25T00:11:15;100716.91;;;9.33;58.37
80103;BME280;69865;47.648;19.030;2024-01-25T00:11:47;100721.53;;;9.18;58.66
80103;BME280;69865;47.648;19.030;2024-01-25T00:12:19;100710.06;;;9.19;58.49
80103;BME280;69865;47.648;19.030;2024-01-25T00:12:53;100705.50;;;9.21;59.01
80103;BME280;69865;47.648;19.030;2024-01-25T00:13:25;100700.50;;;9.18;58.14
80103;BME280;69865;47.648;19.030;2024-01-25T00:13:57;100717.81;;;9.21;58.30
80103;BME280;69865;47.648;19.030;2024-01-25T00:14:29;100708.16;;;9.21;58.22
80103;BME280;69865;47.648;19.030;2024-01-25T00:15:02;100715.31;;;9.19;58.25
80103;BME280;69865;47.648;19.030;2024-01-25T00:15:34;100697.72;;;9.20;57.87
80103;BME280;69865;47.648;19.030;2024-01-25T00:16:06;100697.63;;;9.21;57.58
80103;BME280;69865;47.648;19.030;2024-01-25T00:16:40;100706.34;;;9.22;57.57
80103;BME280;69865;47.648;19.030;2024-01-25T00:17:12;100708.63;;;9.15;59.21
80103;BME280;69865;47.648;19.030;2024-01-25T00:17:44;100721.44;;;9.31;58.19
80103;BME280;69865;47.648;19.030;2024-01-25T00:18:16;100695.84;;;9.22;57.79
80103;BME280;69865;47.648;19.030;2024-01-25T00:18:49;100708.81;;;9.12;59.37
80103;BME280;69865;47.648;19.030;2024-01-25T00:19:21;100688.38;;;9.05;58.45
80103;BME280;69865;47.648;19.030;2024-01-25T00:19:54;100702.78;;;9.23;58.70
80103;BME280;69865;47.648;19.030;2024-01-25T00:20:26;100729.78;;;9.25;58.28
80103;BME280;69865;47.648;19.030;2024-01-25T00:20:58;100704.09;;;9.28;57.95
80103;BME280;69865;47.648;19.030;2024-01-25T00:21:30;100715.59;;;9.27;57.89
80103;BME280;69865;47.648;19.030;2024-01-25T00:22:03;100704.06;;;9.17;58.72
80103;BME280;69865;47.648;19.030;2024-01-25T00:22:35;100706.59;;;9.19;58.97
80103;BME280;69865;47.648;19.030;2024-01-25T00:23:07;100708.72;;;9.14;58.63
80103;BME280;69865;47.648;19.030;2024-01-25T00:23:39;100715.19;;;9.21;57.96
80103;BME280;69865;47.648;19.030;2024-01-25T00:24:12;100720.06;;;9.14;58.32
80103;BME280;69865;47.648;19.030;2024-01-25T00:24:44;100705.34;;;9.12;58.24
80103;BME280;69865;47.648;19.030;2024-01-25T00:25:16;100718.38;;;9.13;58.73
80103;BME280;69865;47.648;19.030;2024-01-25T00:25:48;100709.78;;;9.11;58.67
80103;BME280;69865;47.648;19.030;2024-01-25T00:26:20;100687.81;;;9.12;58.50
80103;BME280;69865;47.648;19.030;2024-01-25T00:26:53;100717.03;;;9.08;59.28
80103;BME280;69865;47.648;19.030;2024-01-25T00:27:25;100703.81;;;9.09;59.17
80103;BME280;69865;47.648;19.030;2024-01-25T00:27:58;100719.47;;;9.11;58.75
80103;BME280;69865;47.648;19.030;2024-01-25T00:28:30;100708.81;;;9.12;57.93
80103;BME280;69865;47.648;19.030;2024-01-25T00:29:03;100718.50;;;9.12;58.88
80103;BME280;69865;47.648;19.030;2024-01-25T00:29:36;100709.91;;;9.10;58.21
80103;BME280;69865;47.648;19.030;2024-01-25T00:30:09;100702.25;;;9.07;58.96
80103;BME280;69865;47.648;19.030;2024-01-25T00:30:41;100716.75;;;9.23;57.96
80103;BME280;69865;47.648;19.030;2024-01-25T00:31:13;100718.41;;;9.24;57.78
80103;BME280;69865;47.648;19.030;2024-01-25T00:31:45;100719.50;;;9.22;58.45
80103;BME280;69865;47.648;19.030;2024-01-25T00:32:17;100720.91;;;9.15;58.32
80103;BME280;69865;47.648;19.030;2024-01-25T00:32:50;100729.13;;;9.10;58.16
80103;BME280;69865;47.648;19.030;2024-01-25T00:33:22;100721.53;;;9.18;58.45
80103;BME280;69865;47.648;19.030;2024-01-25T00:33:55;100713.28;;;9.23;58.19
80103;BME280;69865;47.648;19.030;2024-01-25T00:34:28;100719.41;;;9.23;57.70
80103;BME280;69865;47.648;19.030;2024-01-25T00:35:00;100706.13;;;9.25;57.37
80103;BME280;69865;47.648;19.030;2024-01-25T00:35:33;100675.31;;;9.27;57.57
80103;BME280;69865;47.648;19.030;2024-01-25T00:36:07;100718.56;;;9.23;57.55
80103;BME280;69865;47.648;19.030;2024-01-25T00:36:40;100736.53;;;9.16;57.76
80103;BME280;69865;47.648;19.030;2024-01-25T00:37:12;100717.09;;;9.19;57.95
80103;BME280;69865;47.648;19.030;2024-01-25T00:37:45;100740.00;;;9.17;58.53
80103;BME280;69865;47.648;19.030;2024-01-25T00:38:17;100731.53;;;9.13;58.11
80103;BME280;69865;47.648;19.030;2024-01-25T00:38:50;100736.34;;;9.19;57.74
80103;BME280;69865;47.648;19.030;2024-01-25T00:39:23;100708.97;;;9.11;58.64
80103;BME280;69865;47.648;19.030;2024-01-25T00:39:55;100737.03;;;9.10;58.74
80103;BME280;69865;47.648;19.030;2024-01-25T00:40:28;100738.56;;;9.13;58.34
80103;BME280;69865;47.648;19.030;2024-01-25T00:41:01;100735.94;;;9.13;58.29
80103;BME280;69865;47.648;19.030;2024-01-25T00:41:33;100746.19;;;9.05;57.92
80103;BME280;69865;47.648;19.030;2024-01-25T00:42:07;100718.13;;;9.05;57.70
80103;BME280;69865;47.648;19.030;2024-01-25T00:42:42;100714.22;;;9.11;57.86
80103;BME280;69865;47.648;19.030;2024-01-25T00:43:16;100754.06;;;9.05;58.53
80103;BME280;69865;47.648;19.030;2024-01-25T00:43:49;100737.13;;;9.09;57.84
80103;BME280;69865;47.648;19.030;2024-01-25T00:44:22;100741.16;;;9.02;59.31
80103;BME280;69865;47.648;19.030;2024-01-25T00:44:54;100737.03;;;9.10;58.37
80103;BME280;69865;47.648;19.030;2024-01-25T00:45:27;100714.41;;;9.08;58.60
80103;BME280;69865;47.648;19.030;2024-01-25T00:46:00;100743.13;;;9.11;57.71
80103;BME280;69865;47.648;19.030;2024-01-25T00:46:32;100760.16;;;9.05;58.90
80103;BME280;69865;47.648;19.030;2024-01-25T00:47:05;100742.34;;;8.98;58.37
80103;BME280;69865;47.648;19.030;2024-01-25T00:47:38;100739.31;;;8.91;58.96
80103;BME280;69865;47.648;19.030;2024-01-25T00:48:11;100742.59;;;9.06;58.87
80103;BME280;69865;47.648;19.030;2024-01-25T00:48:44;100726.50;;;9.10;57.89
80103;BME280;69865;47.648;19.030;2024-01-25T00:49:17;100739.50;;;9.12;57.99
80103;BME280;69865;47.648;19.030;2024-01-25T00:49:50;100736.88;;;9.12;57.46
80103;BME280;69865;47.648;19.030;2024-01-25T00:50:23;100737.38;;;9.17;58.02
80103;BME280;69865;47.648;19.030;2024-01-25T00:50:56;100738.97;;;9.19;57.27
80103;BME280;69865;47.648;19.030;2024-01-25T00:51:29;100748.38;;;9.11;58.46
80103;BME280;69865;47.648;19.030;2024-01-25T00:52:02;100754.53;;;8.99;58.64
80103;BME280;69865;47.648;19.030;2024-01-25T00:52:35;100763.25;;;8.99;58.29
80103;BME280;69865;47.648;19.030;2024-01-25T00:53:08;100734.44;;;8.98;58.10
80103;BME280;69865;47.648;19.030;2024-01-25T00:53:41;100744.25;;;8.95;59.61
80103;BME280;69865;47.648;19.030;2024-01-25T00:54:13;100749.84;;;8.91;59.16
80103;BME280;69865;47.648;19.030;2024-01-25T00:54:46;100741.53;;;8.84;59.72
80103;BME280;69865;47.648;19.030;2024-01-25T00:55:19;100756.81;;;8.79;59.83
80103;BME280;69865;47.648;19.030;2024-01-25T00:55:51;100736.84;;;8.77;59.94
80103;BME280;69865;47.648;19.030;2024-01-25T00:56:24;100745.56;;;8.77;59.74
80103;BME280;69865;47.648;19.030;2024-01-25T00:56:57;100747.41;;;8.64;60.35
80103;BME280;69865;47.648;19.030;2024-01-25T00:57:29;100742.06;;;8.66;60.12
80103;BME280;69865;47.648;19.030;2024-01-25T00:58:02;100751.28;;;8.71;60.59
80103;BME280;69865;47.648;19.030;2024-01-25T00:58:36;100746.59;;;8.64;60.64
80103;BME280;69865;47.648;19.030;2024-01-25T00:59:09;100726.53;;;8.63;60.20
80103;BME280;69865;47.648;19.030;2024-01-25T00:59:41;100731.38;;;8.80;58.68
80103;BME280;69865;47.648;19.030;2024-01-25T01:00:14;100734.22;;;8.77;58.86
80103;BME280;69865;47.648;19.030;2024-01-25T01:00:47;100732.06;;;8.71;59.65
80103;BME280;69865;47.648;19.030;2024-01-25T01:01:21;100737.63;;;8.66;59.36
80103;BME280;69865;47.648;19.030;2024-01-25T01:01:55;100738.59;;;8.65;59.79
80103;BME280;69865;47.648;19.030;2024-01-25T01:02:30;100726.63;;;8.61;59.58
80103;BME280;69865;47.648;19.030;2024-01-25T01:03:06;100726.91;;;8.69;59.09
80103;BME280;69865;47.648;19.030;2024-01-25T01:03:39;100730.38;;;8.70;59.06
80103;BME280;69865;47.648;19.030;2024-01-25T01:04:12;100735.53;;;8.71;59.82
80103;BME280;69865;47.648;19.030;2024-01-25T01:04:45;100732.28;;;8.68;60.20
80103;BME280;69865;47.648;19.030;2024-01-25T01:05:20;100741.44;;;8.62;60.37
80103;BME280;69865;47.648;19.030;2024-01-25T01:05:53;100724.91;;;8.73;58.55
80103;BME280;69865;47.648;19.030;2024-01-25T01:06:28;100715.69;;;8.91;58.23
80103;BME280;69865;47.648;19.030;2024-01-25T01:07:01;100743.56;;;8.81;58.62
80103;BME280;69865;47.648;19.030;2024-01-25T01:07:34;100736.13;;;8.75;59.15
80103;BME280;69865;47.648;19.030;2024-01-25T01:08:07;100735.69;;;8.81;58.05
80103;BME280;69865;47.648;19.030;2024-01-25T01:08:40;100738.22;;;8.82;58.18
80103;BME280;69865;47.648;19.030;2024-01-25T01:09:15;100729.16;;;8.86;58.39
80103;BME280;69865;47.648;19.030;2024-01-25T01:09:47;100723.34;;;8.94;56.97
80103;BME280;69865;47.648;19.030;2024-01-25T01:10:19;100725.59;;;8.87;58.78
80103;BME280;69865;47.648;19.030;2024-01-25T01:10:51;100743.78;;;8.78;59.36
80103;BME280;69865;47.648;19.030;2024-01-25T01:11:23;100721.44;;;8.72;59.66
80103;BME280;69865;47.648;19.030;2024-01-25T01:11:55;100734.78;;;8.69;59.87
80103;BME280;69865;47.648;19.030;2024-01-25T01:12:27;100731.94;;;8.72;58.66
80103;BME280;69865;47.648;19.030;2024-01-25T01:13:00;100727.22;;;9.12;56.84
80103;BME280;69865;47.648;19.030;2024-01-25T01:13:32;100730.59;;;9.14;57.39
80103;BME280;69865;47.648;19.030;2024-01-25T01:14:05;100727.31;;;9.00;56.85
80103;BME280;69865;47.648;19.030;2024-01-25T01:14:37;100726.13;;;9.04;56.79
80103;BME280;69865;47.648;19.030;2024-01-25T01:15:09;100717.41;;;9.03;56.77
80103;BME280;69865;47.648;19.030;2024-01-25T01:15:41;100716.56;;;9.03;56.64
80103;BME280;69865;47.648;19.030;2024-01-25T01:16:13;100717.84;;;8.97;58.10
80103;BME280;69865;47.648;19.030;2024-01-25T01:16:46;100726.00;;;9.05;57.04
80103;BME280;69865;47.648;19.030;2024-01-25T01:17:18;100733.19;;;9.03;57.92
80103;BME280;69865;47.648;19.030;2024-01-25T01:17:50;100718.09;;;8.94;58.45
80103;BME280;69865;47.648;19.030;2024-01-25T01:18:22;100741.34;;;8.87;57.76
80103;BME280;69865;47.648;19.030;2024-01-25T01:18:54;100733.06;;;8.81;59.32
80103;BME280;69865;47.648;19.030;2024-01-25T01:19:26;100718.25;;;8.80;58.11
80103;BME280;69865;47.648;19.030;2024-01-25T01:19:58;100717.53;;;8.78;59.24
80103;BME280;69865;47.648;19.030;2024-01-25T01:20:31;100726.97;;;8.80;58.17
80103;BME280;69865;47.648;19.030;2024-01-25T01:21:04;100721.31;;;8.74;58.23
80103;BME280;69865;47.648;19.030;2024-01-25T01:21:36;100715.00;;;8.76;58.59
80103;BME280;69865;47.648;19.030;2024-01-25T01:22:08;100715.47;;;8.70;58.78
80103;BME280;69865;47.648;19.030;2024-01-25T01:22:40;100724.41;;;8.68;59.33
80103;BME280;69865;47.648;19.030;2024-01-25T01:23:12;100700.78;;;8.68;59.33
80103;BME280;69865;47.648;19.030;2024-01-25T01:23:45;100696.53;;;8.78;58.76
80103;BME280;69865;47.648;19.030;2024-01-25T01:24:17;100714.06;;;8.77;58.37
80103;BME280;69865;47.648;19.030;2024-01-25T01:24:49;100710.50;;;8.78;58.32
80103;BME280;69865;47.648;19.030;2024-01-25T01:25:21;100704.03;;;8.71;59.53
80103;BME280;69865;47.648;19.030;2024-01-25T01:25:53;100714.81;;;8.79;58.62
80103;BME280;69865;47.648;19.030;2024-01-25T01:26:25;100715.69;;;8.67;59.63
80103;BME280;69865;47.648;19.030;2024-01-25T01:26:57;100725.59;;;8.87;58.06
80103;BME280;69865;47.648;19.030;2024-01-25T01:27:29;100703.50;;;8.90;58.10
80103;BME280;69865;47.648;19.030;2024-01-25T01:28:01;100698.34;;;8.88;58.25
80103;BME280;69865;47.648;19.030;2024-01-25T01:28:33;100693.66;;;8.81;59.14
80103;BME280;69865;47.648;19.030;2024-01-25T01:29:07;100707.97;;;8.77;58.63
80103;BME280;69865;47.648;19.030;2024-01-25T01:29:39;100711.91;;;8.71;59.58
80103;BME280;69865;47.648;19.030;2024-01-25T01:30:11;100679.22;;;8.75;58.63
80103;BME280;69865;47.648;19.030;2024-01-25T01:30:43;100715.13;;;8.75;59.14
80103;BME280;69865;47.648;19.030;2024-01-25T01:31:15;100715.50;;;8.81;58.52
80103;BME280;69865;47.648;19.030;2024-01-25T01:31:48;100705.84;;;8.82;58.74
80103;BME280;69865;47.648;19.030;2024-01-25T01:32:21;100710.78;;;8.86;58.66
80103;BME280;69865;47.648;19.030;2024-01-25T01:32:54;100697.41;;;8.89;58.30
80103;BME280;69865;47.648;19.030;2024-01-25T01:33:26;100723.91;;;8.86;59.02
80103;BME280;69865;47.648;19.030;2024-01-25T01:33:58;100707.47;;;8.95;58.09
80103;BME280;69865;47.648;19.030;2024-01-25T01:34:31;100698.84;;;8.93;58.65
80103;BME280;69865;47.648;19.030;2024-01-25T01:35:05;100703.72;;;8.87;59.34
80103;BME280;69865;47.648;19.030;2024-01-25T01:35:37;100719.50;;;8.87;58.35
80103;BME280;69865;47.648;19.030;2024-01-25T01:36:10;100686.63;;;8.81;59.53
80103;BME280;69865;47.648;19.030;2024-01-25T01:36:42;100694.84;;;8.77;58.98
80103;BME280;69865;47.648;19.030;2024-01-25T01:37:14;100697.78;;;8.72;60.39
80103;BME280;69865;47.648;19.030;2024-01-25T01:37:46;100685.44;;;8.85;59.28
80103;BME280;69865;47.648;19.030;2024-01-25T01:38:18;100702.28;;;8.83;58.75
80103;BME280;69865;47.648;19.030;2024-01-25T01:38:50;100678.84;;;8.80;59.03
80103;BME280;69865;47.648;19.030;2024-01-25T01:39:22;100690.38;;;8.90;59.15
80103;BME280;69865;47.648;19.030;2024-01-25T01:39:54;100686.06;;;8.89;59.39
80103;BME280;69865;47.648;19.030;2024-01-25T01:40:27;100688.09;;;8.96;57.99
80103;BME280;69865;47.648;19.030;2024-01-25T01:40:59;100680.13;;;8.98;58.33
80103;BME280;69865;47.648;19.030;2024-01-25T01:41:31;100677.84;;;8.93;59.06
80103;BME280;69865;47.648;19.030;2024-01-25T01:42:03;100689.63;;;8.88;59.92
80103;BME280;69865;47.648;19.030;2024-01-25T01:42:35;100681.03;;;8.86;59.54
80103;BME280;69865;47.648;19.030;2024-01-25T01:43:07;100690.38;;;8.90;59.16
80103;BME280;69865;47.648;19.030;2024-01-25T01:43:52;100700.38;;;8.85;58.89
80103;BME280;69865;47.648;19.030;2024-01-25T01:44:25;100694.88;;;8.88;59.54
80103;BME280;69865;47.648;19.030;2024-01-25T01:44:57;100706.72;;;8.93;59.06
80103;BME280;69865;47.648;19.030;2024-01-25T01:45:29;100690.72;;;8.96;58.16
80103;BME280;69865;47.648;19.030;2024-01-25T01:46:06;100685.72;;;8.93;59.31
80103;BME280;69865;47.648;19.030;2024-01-25T01:46:41;100692.66;;;8.94;59.18
80103;BME280;69865;47.648;19.030;2024-01-25T01:47:13;100708.84;;;8.88;59.13
80103;BME280;69865;47.648;19.030;2024-01-25T01:47:46;100701.72;;;8.90;59.28
80103;BME280;69865;47.648;19.030;2024-01-25T01:48:18;100706.50;;;8.96;58.77
80103;BME280;69865;47.648;19.030;2024-01-25T01:48:51;100713.19;;;9.01;57.89
80103;BME280;69865;47.648;19.030;2024-01-25T01:49:23;100697.72;;;9.09;57.29
80103;BME280;69865;47.648;19.030;2024-01-25T01:49:56;100706.31;;;9.11;57.99
80103;BME280;69865;47.648;19.030;2024-01-25T01:50:28;100680.75;;;9.13;57.49
80103;BME280;69865;47.648;19.030;2024-01-25T01:51:01;100710.75;;;9.10;57.16
80103;BME280;69865;47.648;19.030;2024-01-25T01:51:35;100716.66;;;9.01;58.00
80103;BME280;69865;47.648;19.030;2024-01-25T01:52:07;100689.47;;;9.02;57.96
80103;BME280;69865;47.648;19.030;2024-01-25T01:52:40;100708.69;;;9.03;58.55
80103;BME280;69865;47.648;19.030;2024-01-25T01:53:12;100707.63;;;9.05;57.25
80103;BME280;69865;47.648;19.030;2024-01-25T01:53:46;100700.66;;;9.04;57.07
80103;BME280;69865;47.648;19.030;2024-01-25T01:54:18;100709.88;;;8.99;58.43
80103;BME280;69865;47.648;19.030;2024-01-25T01:54:51;100720.03;;;9.03;57.30
80103;BME280;69865;47.648;19.030;2024-01-25T01:55:23;100716.44;;;9.04;58.17
80103;BME280;69865;47.648;19.030;2024-01-25T01:55:55;100703.88;;;8.96;58.15
80103;BME280;69865;47.648;19.030;2024-01-25T01:56:28;100720.25;;;9.00;57.30
80103;BME280;69865;47.648;19.030;2024-01-25T01:57:01;100705.78;;;8.94;57.53
80103;BME280;69865;47.648;19.030;2024-01-25T01:57:34;100701.97;;;8.99;57.61
80103;BME280;69865;47.648;19.030;2024-01-25T01:58:07;100702.31;;;8.94;57.57
80103;BME280;69865;47.648;19.030;2024-01-25T01:58:41;100712.31;;;8.89;58.33
80103;BME280;69865;47.648;19.030;2024-01-25T01:59:15;100708.50;;;8.93;57.90
80103;BME280;69865;47.648;19.030;2024-01-25T01:59:49;100706.34;;;8.87;58.22
80103;BME280;69865;47.648;19.030;2024-01-25T02:00:21;100697.13;;;8.81;58.64
80103;BME280;69865;47.648;19.030;2024-01-25T02:00:54;100709.75;;;8.76;58.70
80103;BME280;69865;47.648;19.030;2024-01-25T02:01:27;100720.72;;;8.70;58.84
80103;BME280;69865;47.648;19.030;2024-01-25T02:01:59;100702.72;;;8.77;58.84
80103;BME280;69865;47.648;19.030;2024-01-25T02:02:32;100717.34;;;8.68;58.99
80103;BME280;69865;47.648;19.030;2024-01-25T02:03:04;100706.84;;;8.68;59.60
80103;BME280;69865;47.648;19.030;2024-01-25T02:03:36;100705.94;;;8.80;58.76
80103;BME280;69865;47.648;19.030;2024-01-25T02:04:09;100691.38;;;8.76;59.29
80103;BME280;69865;47.648;19.030;2024-01-25T02:04:42;100708.28;;;8.72;58.34
80103;BME280;69865;47.648;19.030;2024-01-25T02:05:15;100691.38;;;8.76;59.06
80103;BME280;69865;47.648;19.030;2024-01-25T02:05:47;100693.88;;;8.78;59.13
80103;BME280;69865;47.648;19.030;2024-01-25T02:06:20;100706.50;;;8.73;59.50
80103;BME280;69865;47.648;19.030;2024-01-25T02:06:52;100701.25;;;8.73;59.37
80103;BME280;69865;47.648;19.030;2024-01-25T02:07:25;100715.22;;;8.73;58.22
80103;BME280;69865;47.648;19.030;2024-01-25T02:07:57;100703.03;;;8.72;59.33
80103;BME280;69865;47.648;19.030;2024-01-25T02:08:30;100706.19;;;8.77;59.08
80103;BME280;69865;47.648;19.030;2024-01-25T02:09:02;100721.56;;;8.71;58.23
80103;BME280;69865;47.648;19.030;2024-01-25T02:09:34;100697.19;;;8.69;58.56
80103;BME280;69865;47.648;19.030;2024-01-25T02:10:08;100694.47;;;8.70;58.26
80103;BME280;69865;47.648;19.030;2024-01-25T02:10:40;100701.38;;;8.71;58.22
80103;BME280;69865;47.648;19.030;2024-01-25T02:11:12;100705.66;;;8.72;58.78
80103;BME280;69865;47.648;19.030;2024-01-25T02:11:44;100698.75;;;8.71;58.65
80103;BME280;69865;47.648;19.030;2024-01-25T02:12:16;100699.59;;;8.72;59.11
80103;BME280;69865;47.648;19.030;2024-01-25T02:12:48;100683.72;;;8.73;58.29
80103;BME280;69865;47.648;19.030;2024-01-25T02:13:21;100704.72;;;8.73;58.78
80103;BME280;69865;47.648;19.030;2024-01-25T02:13:53;100713.06;;;8.67;58.46
80103;BME280;69865;47.648;19.030;2024-01-25T02:14:26;100699.19;;;8.65;58.75
80103;BME280;69865;47.648;19.030;2024-01-25T02:15:00;100704.63;;;8.75;57.90
80103;BME280;69865;47.648;19.030;2024-01-25T02:15:32;100687.56;;;8.80;57.38
80103;BME280;69865;47.648;19.030;2024-01-25T02:16:05;100697.47;;;8.77;57.83
80103;BME280;69865;47.648;19.030;2024-01-25T02:16:37;100708.47;;;8.82;57.36
80103;BME280;69865;47.648;19.030;2024-01-25T02:17:09;100693.50;;;8.71;57.90
80103;BME280;69865;47.648;19.030;2024-01-25T02:17:42;100700.03;;;8.66;58.08
80103;BME280;69865;47.648;19.030;2024-01-25T02:18:14;100723.06;;;8.62;59.20
80103;BME280;69865;47.648;19.030;2024-01-25T02:18:47;100705.63;;;8.85;56.88
80103;BME280;69865;47.648;19.030;2024-01-25T02:19:20;100695.56;;;8.79;57.46
80103;BME280;69865;47.648;19.030;2024-01-25T02:19:52;100701.66;;;8.79;58.52
80103;BME280;69865;47.648;19.030;2024-01-25T02:20:25;100717.25;;;8.70;58.42
80103;BME280;69865;47.648;19.030;2024-01-25T02:20:57;100704.13;;;8.70;58.44
80103;BME280;69865;47.648;19.030;2024-01-25T02:21:30;100707.34;;;8.73;58.41
80103;BME280;69865;47.648;19.030;2024-01-25T02:22:04;100709.56;;;8.79;58.26
80103;BME280;69865;47.648;19.030;2024-01-25T02:22:38;100704.72;;;8.73;58.69
80103;BME280;69865;47.648;19.030;2024-01-25T02:23:11;100714.06;;;8.77;57.38
80103;BME280;69865;47.648;19.030;2024-01-25T02:23:43;100710.53;;;8.89;57.79
80103;BME280;69865;47.648;19.030;2024-01-25T02:24:15;100685.22;;;8.88;56.99
80103;BME280;69865;47.648;19.030;2024-01-25T02:24:47;100684.16;;;8.91;56.81
80103;BME280;69865;47.648;19.030;2024-01-25T02:25:19;100708.97;;;8.87;58.34
80103;BME280;69865;47.648;19.030;2024-01-25T02:25:52;100695.94;;;8.85;58.21
80103;BME280;69865;47.648;19.030;2024-01-25T02:26:24;100637.72;;;8.91;57.12
80103;BME280;69865;47.648;19.030;2024-01-25T02:26:57;100705.66;;;8.96;57.73
80103;BME280;69865;47.648;19.030;2024-01-25T02:27:29;100706.13;;;8.90;58.16
80103;BME280;69865;47.648;19.030;2024-01-25T02:28:01;100705.03;;;8.92;57.49
80103;BME280;69865;47.648;19.030;2024-01-25T02:28:33;100675.09;;;8.95;57.11
80103;BME280;69865;47.648;19.030;2024-01-25T02:29:05;100708.28;;;8.96;57.31
80103;BME280;69865;47.648;19.030;2024-01-25T02:29:37;100689.69;;;8.99;57.27
80103;BME280;69865;47.648;19.030;2024-01-25T02:30:10;100705.66;;;8.96;56.74
80103;BME280;69865;47.648;19.030;2024-01-25T02:30:43;100706.63;;;8.95;57.12
80103;BME280;69865;47.648;19.030;2024-01-25T02:31:15;100660.56;;;9.02;56.58
80103;BME280;69865;47.648;19.030;2024-01-25T02:31:48;100694.81;;;9.01;57.36
80103;BME280;69865;47.648;19.030;2024-01-25T02:32:20;100692.78;;;9.04;56.35
80103;BME280;69865;47.648;19.030;2024-01-25T02:32:52;100638.69;;;9.02;56.46
80103;BME280;69865;47.648;19.030;2024-01-25T02:33:24;100695.78;;;9.00;56.77
80103;BME280;69865;47.648;19.030;2024-01-25T02:33:56;100676.91;;;8.94;57.94
80103;BME280;69865;47.648;19.030;2024-01-25T02:34:29;100687.50;;;8.93;56.92
80103;BME280;69865;47.648;19.030;2024-01-25T02:35:01;100686.09;;;9.00;57.31
80103;BME280;69865;47.648;19.030;2024-01-25T02:35:34;100688.72;;;9.00;56.82
80103;BME280;69865;47.648;19.030;2024-01-25T02:36:06;100688.09;;;8.96;56.88
80103;BME280;69865;47.648;19.030;2024-01-25T02:36:38;100691.56;;;8.97;57.13
80103;BME280;69865;47.648;19.030;2024-01-25T02:37:10;100690.03;;;8.94;58.07
80103;BME280;69865;47.648;19.030;2024-01-25T02:37:44;100698.00;;;8.93;57.08
80103;BME280;69865;47.648;19.030;2024-01-25T02:38:16;100680.28;;;8.84;57.64
80103;BME280;69865;47.648;19.030;2024-01-25T02:38:48;100675.31;;;8.92;57.18
80103;BME280;69865;47.648;19.030;2024-01-25T02:39:20;100692.66;;;8.94;56.95
80103;BME280;69865;47.648;19.030;2024-01-25T02:39:53;100692.16;;;8.89;57.41
80103;BME280;69865;47.648;19.030;2024-01-25T02:40:25;100678.84;;;9.04;56.23
80103;BME280;69865;47.648;19.030;2024-01-25T02:40:58;100681.22;;;8.95;57.41
80103;BME280;69865;47.648;19.030;2024-01-25T02:41:31;100696.69;;;8.87;57.43
80103;BME280;69865;47.648;19.030;2024-01-25T02:42:03;100678.84;;;8.80;58.03
80103;BME280;69865;47.648;19.030;2024-01-25T02:42:36;100700.69;;;8.80;57.65
80103;BME280;69865;47.648;19.030;2024-01-25T02:43:08;100673.38;;;8.83;58.62
80103;BME280;69865;47.648;19.030;2024-01-25T02:43:41;100682.16;;;8.94;57.52
80103;BME280;69865;47.648;19.030;2024-01-25T02:44:13;100661.56;;;8.88;57.53
80103;BME280;69865;47.648;19.030;2024-01-25T02:44:45;100665.88;;;8.89;57.54
80103;BME280;69865;47.648;19.030;2024-01-25T02:45:17;100692.06;;;8.91;57.07
80103;BME280;69865;47.648;19.030;2024-01-25T02:45:49;100680.09;;;8.87;57.97
80103;BME280;69865;47.648;19.030;2024-01-25T02:46:23;100687.97;;;8.87;58.24
80103;BME280;69865;47.648;19.030;2024-01-25T02:46:55;100668.97;;;8.83;58.52
80103;BME280;69865;47.648;19.030;2024-01-25T02:47:27;100677.91;;;8.81;58.43
80103;BME280;69865;47.648;19.030;2024-01-25T02:48:00;100676.72;;;8.85;58.46
80103;BME280;69865;47.648;19.030;2024-01-25T02:48:32;100668.41;;;8.91;57.91
80103;BME280;69865;47.648;19.030;2024-01-25T02:49:04;100669.34;;;8.90;57.86
80103;BME280;69865;47.648;19.030;2024-01-25T02:49:37;100676.97;;;8.82;58.22
80103;BME280;69865;47.648;19.030;2024-01-25T02:50:09;100664.53;;;8.84;58.33
80103;BME280;69865;47.648;19.030;2024-01-25T02:50:42;100659.78;;;8.89;58.06